sensor_id;sensor_type;location;lat;lon;timestamp;pressure;altitude;pressure_sealevel;temperature;humidity
49455;BME280;69710;64.656;21.218;2023-06-10T00:02:20;102987.80;;;5.74;57.06
49455;BME280;69710;64.656;21.218;2023-06-10T00:04:47;102991.46;;;6.24;57.33
49455;BME280;69710;64.656;21.218;2023-06-10T00:07:15;102992.45;;;5.80;58.63
49455;BME280;69710;64.656;21.218;2023-06-10T00:09:42;102992.50;;;5.65;57.76
49455;BME280;69710;64.656;21.218;2023-06-10T00:12:10;102995.10;;;5.42;60.32
49455;BME280;69710;64.656;21.218;2023-06-10T00:14:39;102991.44;;;5.79;58.31
49455;BME280;69710;64.656;21.218;2023-06-10T00:17:07;102994.70;;;5.99;58.61
49455;BME280;69710;64.656;21.218;2023-06-10T00:19:34;102997.78;;;5.39;58.71
49455;BME280;69710;64.656;21.218;2023-06-10T00:22:02;102996.64;;;5.58;59.78
49455;BME280;69710;64.656;21.218;2023-06-10T00:24:29;103001.24;;;5.78;58.64
49455;BME280;69710;64.656;21.218;2023-06-10T00:26:56;103004.19;;;6.19;58.24
49455;BME280;69710;64.656;21.218;2023-06-10T00:29:24;103004.17;;;5.86;59.41
49455;BME280;69710;64.656;21.218;2023-06-10T00:31:51;103005.70;;;6.10;59.11
49455;BME280;69710;64.656;21.218;2023-06-10T00:34:19;103007.76;;;6.74;58.36
49455;BME280;69710;64.656;21.218;2023-06-10T00:36:46;103005.86;;;6.89;58.32
49455;BME280;69710;64.656;21.218;2023-06-10T00:39:14;103008.11;;;6.55;59.09
49455;BME280;69710;64.656;21.218;2023-06-10T00:41:41;103005.96;;;6.95;57.92
49455;BME280;69710;64.656;21.218;2023-06-10T00:44:09;103001.18;;;7.22;57.21
49455;BME280;69710;64.656;21.218;2023-06-10T00:46:37;103004.41;;;7.58;57.16
49455;BME280;69710;64.656;21.218;2023-06-10T00:49:05;103005.13;;;7.48;57.19
49455;BME280;69710;64.656;21.218;2023-06-10T00:51:33;103007.64;;;7.56;55.02
49455;BME280;69710;64.656;21.218;2023-06-10T00:54:00;103005.30;;;7.71;55.05
49455;BME280;69710;64.656;21.218;2023-06-10T00:56:28;103004.96;;;7.89;55.80
49455;BME280;69710;64.656;21.218;2023-06-10T00:58:55;103008.25;;;8.77;54.87
49455;BME280;69710;64.656;21.218;2023-06-10T01:01:22;103008.43;;;9.63;54.09
49455;BME280;69710;64.656;21.218;2023-06-10T01:03:50;103006.38;;;9.56;53.55
49455;BME280;69710;64.656;21.218;2023-06-10T01:06:28;103006.32;;;10.40;52.13
49455;BME280;69710;64.656;21.218;2023-06-10T01:09:01;103008.36;;;10.94;51.48
49455;BME280;69710;64.656;21.218;2023-06-10T01:11:34;103004.11;;;11.39;49.75
49455;BME280;69710;64.656;21.218;2023-06-10T01:14:05;103005.98;;;12.25;48.54
49455;BME280;69710;64.656;21.218;2023-06-10T01:16:33;103003.69;;;13.29;45.80
49455;BME280;69710;64.656;21.218;2023-06-10T01:19:01;103005.74;;;13.27;44.61
49455;BME280;69710;64.656;21.218;2023-06-10T01:21:28;103003.54;;;14.07;43.64
49455;BME280;69710;64.656;21.218;2023-06-10T01:23:56;103004.06;;;14.83;42.42
49455;BME280;69710;64.656;21.218;2023-06-10T01:26:28;103001.75;;;15.41;41.04
49455;BME280;69710;64.656;21.218;2023-06-10T01:29:02;103004.13;;;15.62;38.82
49455;BME280;69710;64.656;21.218;2023-06-10T01:31:41;103000.59;;;15.22;37.29
49455;BME280;69710;64.656;21.218;2023-06-10T01:34:12;103001.75;;;15.96;36.45
49455;BME280;69710;64.656;21.218;2023-06-10T01:36:41;103002.20;;;16.63;34.38
49455;BME280;69710;64.656;21.218;2023-06-10T01:39:12;103003.07;;;16.74;35.05
49455;BME280;69710;64.656;21.218;2023-06-10T01:41:40;103004.36;;;16.58;32.76
49455;BME280;69710;64.656;21.218;2023-06-10T01:44:08;103003.85;;;17.94;32.99
49455;BME280;69710;64.656;21.218;2023-06-10T01:46:36;103002.17;;;16.77;32.99
49455;BME280;69710;64.656;21.218;2023-06-10T01:49:04;103002.18;;;17.65;31.70
49455;BME280;69710;64.656;21.218;2023-06-10T01:51:32;103005.22;;;17.32;31.34
49455;BME280;69710;64.656;21.218;2023-06-10T01:54:00;103008.28;;;16.55;31.29
49455;BME280;69710;64.656;21.218;2023-06-10T01:56:28;103004.67;;;16.91;30.78
49455;BME280;69710;64.656;21.218;2023-06-10T01:58:56;103002.52;;;16.28;31.38
49455;BME280;69710;64.656;21.218;2023-06-10T02:01:25;102999.48;;;16.18;31.72
49455;BME280;69710;64.656;21.218;2023-06-10T02:03:52;102997.83;;;16.04;31.70
49455;BME280;69710;64.656;21.218;2023-06-10T02:06:20;103000.10;;;13.94;33.65
49455;BME280;69710;64.656;21.218;2023-06-10T02:08:48;103000.10;;;14.68;33.37
49455;BME280;69710;64.656;21.218;2023-06-10T02:11:15;102997.81;;;13.30;34.93
49455;BME280;69710;64.656;21.218;2023-06-10T02:13:43;103002.18;;;13.70;35.33
49455;BME280;69710;64.656;21.218;2023-06-10T02:16:11;103002.92;;;14.06;35.46
49455;BME280;69710;64.656;21.218;2023-06-10T02:18:39;102995.27;;;12.86;36.57
49455;BME280;69710;64.656;21.218;2023-06-10T02:21:07;102999.07;;;12.33;36.57
49455;BME280;69710;64.656;21.218;2023-06-10T02:23:35;103001.08;;;11.56;38.45
49455;BME280;69710;64.656;21.218;2023-06-10T02:26:03;103005.46;;;11.33;39.50
49455;BME280;69710;64.656;21.218;2023-06-10T02:28:32;103001.09;;;11.16;40.02
49455;BME280;69710;64.656;21.218;2023-06-10T02:30:59;103006.68;;;11.05;41.13
49455;BME280;69710;64.656;21.218;2023-06-10T02:33:27;103004.92;;;10.83;41.27
49455;BME280;69710;64.656;21.218;2023-06-10T02:35:56;103006.07;;;9.75;41.73
49455;BME280;69710;64.656;21.218;2023-06-10T02:38:24;103009.82;;;10.69;41.31
49455;BME280;69710;64.656;21.218;2023-06-10T02:40:51;103010.44;;;11.29;41.45
49455;BME280;69710;64.656;21.218;2023-06-10T02:43:19;103011.54;;;11.24;41.76
49455;BME280;69710;64.656;21.218;2023-06-10T02:45:47;103008.51;;;11.51;41.45
49455;BME280;69710;64.656;21.218;2023-06-10T02:48:14;103012.39;;;12.38;41.92
49455;BME280;69710;64.656;21.218;2023-06-10T02:50:41;103013.91;;;12.29;40.48
49455;BME280;69710;64.656;21.218;2023-06-10T02:53:09;103010.33;;;12.72;39.48
49455;BME280;69710;64.656;21.218;2023-06-10T02:55:37;103013.61;;;12.85;39.65
49455;BME280;69710;64.656;21.218;2023-06-10T02:58:04;103017.19;;;13.28;39.03
49455;BME280;69710;64.656;21.218;2023-06-10T03:00:32;103020.22;;;13.52;38.52
49455;BME280;69710;64.656;21.218;2023-06-10T03:03:00;103019.83;;;13.35;38.43
49455;BME280;69710;64.656;21.218;2023-06-10T03:05:28;103021.90;;;13.24;38.83
49455;BME280;69710;64.656;21.218;2023-06-10T03:07:56;103023.75;;;12.48;40.56
49455;BME280;69710;64.656;21.218;2023-06-10T03:10:23;103023.02;;;12.82;39.92
49455;BME280;69710;64.656;21.218;2023-06-10T03:12:50;103020.55;;;12.37;40.09
49455;BME280;69710;64.656;21.218;2023-06-10T03:15:18;103025.15;;;12.89;40.29
49455;BME280;69710;64.656;21.218;2023-06-10T03:17:46;103026.88;;;12.28;41.13
49455;BME280;69710;64.656;21.218;2023-06-10T03:20:13;103022.96;;;12.74;39.92
49455;BME280;69710;64.656;21.218;2023-06-10T03:22:40;103024.34;;;13.27;39.15
49455;BME280;69710;64.656;21.218;2023-06-10T03:25:08;103023.84;;;11.76;41.71
49455;BME280;69710;64.656;21.218;2023-06-10T03:27:36;103022.96;;;12.60;40.62
49455;BME280;69710;64.656;21.218;2023-06-10T03:30:05;103017.45;;;11.87;41.76
49455;BME280;69710;64.656;21.218;2023-06-10T03:32:33;103015.88;;;11.54;42.02
49455;BME280;69710;64.656;21.218;2023-06-10T03:35:00;103018.28;;;12.67;41.23
49455;BME280;69710;64.656;21.218;2023-06-10T03:37:27;103016.18;;;12.71;40.89
49455;BME280;69710;64.656;21.218;2023-06-10T03:39:55;103015.51;;;11.92;41.16
49455;BME280;69710;64.656;21.218;2023-06-10T03:42:23;103016.22;;;12.53;41.52
49455;BME280;69710;64.656;21.218;2023-06-10T03:44:50;103015.05;;;12.69;41.09
49455;BME280;69710;64.656;21.218;2023-06-10T03:47:18;103013.75;;;12.70;41.35
49455;BME280;69710;64.656;21.218;2023-06-10T03:49:45;103012.53;;;12.78;40.76
49455;BME280;69710;64.656;21.218;2023-06-10T03:52:13;103013.88;;;13.25;40.62
49455;BME280;69710;64.656;21.218;2023-06-10T03:54:41;103017.59;;;12.84;41.13
49455;BME280;69710;64.656;21.218;2023-06-10T03:57:08;103015.02;;;13.13;40.56
49455;BME280;69710;64.656;21.218;2023-06-10T03:59:36;103018.70;;;13.46;39.65
49455;BME280;69710;64.656;21.218;2023-06-10T04:02:04;103019.24;;;13.39;40.13
49455;BME280;69710;64.656;21.218;2023-06-10T04:04:32;103017.26;;;14.65;39.23
49455;BME280;69710;64.656;21.218;2023-06-10T04:07:00;103019.09;;;13.68;38.68
49455;BME280;69710;64.656;21.218;2023-06-10T04:09:27;103018.92;;;14.42;38.70
49455;BME280;69710;64.656;21.218;2023-06-10T04:11:55;103019.33;;;14.50;38.09
49455;BME280;69710;64.656;21.218;2023-06-10T04:14:22;103023.30;;;14.94;36.95
49455;BME280;69710;64.656;21.218;2023-06-10T04:16:50;103022.53;;;15.33;37.10
49455;BME280;69710;64.656;21.218;2023-06-10T04:19:18;103020.01;;;16.19;36.14
49455;BME280;69710;64.656;21.218;2023-06-10T04:21:45;103016.95;;;16.72;34.90
49455;BME280;69710;64.656;21.218;2023-06-10T04:24:13;103018.11;;;16.63;35.58
49455;BME280;69710;64.656;21.218;2023-06-10T04:26:41;103020.40;;;16.01;35.05
49455;BME280;69710;64.656;21.218;2023-06-10T04:29:09;103020.94;;;15.94;35.87
49455;BME280;69710;64.656;21.218;2023-06-10T04:31:37;103022.55;;;15.15;35.71
49455;BME280;69710;64.656;21.218;2023-06-10T04:34:04;103026.83;;;14.98;37.21
49455;BME280;69710;64.656;21.218;2023-06-10T04:36:32;103023.32;;;13.83;37.39
49455;BME280;69710;64.656;21.218;2023-06-10T04:39:00;103015.75;;;13.78;37.54
49455;BME280;69710;64.656;21.218;2023-06-10T04:41:27;103014.12;;;14.47;37.91
49455;BME280;69710;64.656;21.218;2023-06-10T04:43:55;103015.24;;;13.85;38.00
49455;BME280;69710;64.656;21.218;2023-06-10T04:46:22;103011.39;;;13.44;39.10
49455;BME280;69710;64.656;21.218;2023-06-10T04:48:50;103006.99;;;13.99;39.77
49455;BME280;69710;64.656;21.218;2023-06-10T04:51:18;103005.35;;;14.78;37.57
49455;BME280;69710;64.656;21.218;2023-06-10T04:53:45;103006.80;;;14.38;37.48
49455;BME280;69710;64.656;21.218;2023-06-10T04:56:13;103006.21;;;14.54;36.84
49455;BME280;69710;64.656;21.218;2023-06-10T04:58:40;103002.99;;;15.23;36.47
49455;BME280;69710;64.656;21.218;2023-06-10T05:01:08;103002.18;;;14.96;37.04
49455;BME280;69710;64.656;21.218;2023-06-10T05:03:36;103005.37;;;14.66;36.92
49455;BME280;69710;64.656;21.218;2023-06-10T05:06:04;102999.76;;;15.02;36.85
49455;BME280;69710;64.656;21.218;2023-06-10T05:08:33;103001.54;;;15.52;36.15
49455;BME280;69710;64.656;21.218;2023-06-10T05:11:00;102998.13;;;15.98;35.67
49455;BME280;69710;64.656;21.218;2023-06-10T05:13:27;102997.34;;;15.31;35.90
49455;BME280;69710;64.656;21.218;2023-06-10T05:15:54;102994.97;;;14.26;37.68
49455;BME280;69710;64.656;21.218;2023-06-10T05:18:23;102995.14;;;15.42;35.94
49455;BME280;69710;64.656;21.218;2023-06-10T05:20:50;102991.79;;;16.20;36.36
49455;BME280;69710;64.656;21.218;2023-06-10T05:23:17;102992.38;;;17.44;34.87
49455;BME280;69710;64.656;21.218;2023-06-10T05:25:44;102994.23;;;16.91;33.86
49455;BME280;69710;64.656;21.218;2023-06-10T05:28:12;102990.93;;;16.51;34.19
49455;BME280;69710;64.656;21.218;2023-06-10T05:30:40;102991.52;;;16.36;34.26
49455;BME280;69710;64.656;21.218;2023-06-10T05:33:08;102989.96;;;16.80;33.99
49455;BME280;69710;64.656;21.218;2023-06-10T05:35:35;102989.62;;;16.19;35.03
49455;BME280;69710;64.656;21.218;2023-06-10T05:38:03;102994.70;;;15.90;35.00
49455;BME280;69710;64.656;21.218;2023-06-10T05:40:30;102990.93;;;15.74;34.66
49455;BME280;69710;64.656;21.218;2023-06-10T05:42:59;102995.38;;;15.54;35.70
49455;BME280;69710;64.656;21.218;2023-06-10T05:45:27;102992.19;;;15.93;35.02
49455;BME280;69710;64.656;21.218;2023-06-10T05:47:55;102987.97;;;15.45;35.46
49455;BME280;69710;64.656;21.218;2023-06-10T05:50:24;102987.72;;;14.35;36.31
49455;BME280;69710;64.656;21.218;2023-06-10T05:52:52;102987.93;;;15.28;35.78
49455;BME280;69710;64.656;21.218;2023-06-10T05:55:19;102984.73;;;15.15;35.58
49455;BME280;69710;64.656;21.218;2023-06-10T05:57:47;102985.46;;;15.13;35.78
49455;BME280;69710;64.656;21.218;2023-06-10T06:00:15;102988.62;;;14.12;37.35
49455;BME280;69710;64.656;21.218;2023-06-10T06:02:42;102986.09;;;14.47;37.21
49455;BME280;69710;64.656;21.218;2023-06-10T06:05:09;102987.07;;;14.46;37.00
49455;BME280;69710;64.656;21.218;2023-06-10T06:07:37;102982.12;;;13.83;36.85
49455;BME280;69710;64.656;21.218;2023-06-10T06:10:06;102986.18;;;14.39;36.46
49455;BME280;69710;64.656;21.218;2023-06-10T06:12:34;102986.79;;;14.44;36.69
49455;BME280;69710;64.656;21.218;2023-06-10T06:15:03;102984.49;;;14.42;36.85
49455;BME280;69710;64.656;21.218;2023-06-10T06:17:30;102984.91;;;12.98;38.60
49455;BME280;69710;64.656;21.218;2023-06-10T06:19:58;102980.79;;;14.01;37.14
49455;BME280;69710;64.656;21.218;2023-06-10T06:22:26;102978.89;;;14.01;37.49
49455;BME280;69710;64.656;21.218;2023-06-10T06:24:54;102981.45;;;13.89;36.22
49455;BME280;69710;64.656;21.218;2023-06-10T06:27:22;102985.75;;;14.39;36.78
49455;BME280;69710;64.656;21.218;2023-06-10T06:29:49;102990.85;;;14.07;36.39
49455;BME280;69710;64.656;21.218;2023-06-10T06:32:16;102983.27;;;13.52;36.95
49455;BME280;69710;64.656;21.218;2023-06-10T06:34:44;102983.35;;;14.42;36.37
49455;BME280;69710;64.656;21.218;2023-06-10T06:37:11;102987.20;;;13.69;37.54
49455;BME280;69710;64.656;21.218;2023-06-10T06:39:39;102984.65;;;13.49;37.30
49455;BME280;69710;64.656;21.218;2023-06-10T06:42:07;102979.30;;;13.93;36.71
49455;BME280;69710;64.656;21.218;2023-06-10T06:44:34;102975.97;;;14.81;36.25
49455;BME280;69710;64.656;21.218;2023-06-10T06:47:03;102979.45;;;14.67;35.78
49455;BME280;69710;64.656;21.218;2023-06-10T06:49:30;102976.27;;;14.33;35.81
49455;BME280;69710;64.656;21.218;2023-06-10T06:51:58;102979.62;;;14.45;36.28
49455;BME280;69710;64.656;21.218;2023-06-10T06:54:25;102973.50;;;14.43;36.45
49455;BME280;69710;64.656;21.218;2023-06-10T06:56:53;102964.87;;;14.15;36.52
49455;BME280;69710;64.656;21.218;2023-06-10T06:59:20;102974.85;;;14.30;35.79
49455;BME280;69710;64.656;21.218;2023-06-10T07:01:48;102967.29;;;13.83;36.70
49455;BME280;69710;64.656;21.218;2023-06-10T07:04:17;102967.67;;;13.63;36.00
49455;BME280;69710;64.656;21.218;2023-06-10T07:06:47;102964.76;;;13.68;36.29
49455;BME280;69710;64.656;21.218;2023-06-10T07:09:16;102960.99;;;12.78;37.78
49455;BME280;69710;64.656;21.218;2023-06-10T07:11:46;102963.89;;;13.62;36.70
49455;BME280;69710;64.656;21.218;2023-06-10T07:14:15;102963.36;;;13.53;37.72
49455;BME280;69710;64.656;21.218;2023-06-10T07:16:43;102962.08;;;13.99;36.79
49455;BME280;69710;64.656;21.218;2023-06-10T07:19:12;102967.53;;;14.83;36.84
49455;BME280;69710;64.656;21.218;2023-06-10T07:21:41;102958.88;;;14.32;36.54
49455;BME280;69710;64.656;21.218;2023-06-10T07:24:10;102961.10;;;14.56;35.55
49455;BME280;69710;64.656;21.218;2023-06-10T07:26:39;102960.74;;;14.11;37.29
49455;BME280;69710;64.656;21.218;2023-06-10T07:29:08;102955.94;;;13.54;36.54
49455;BME280;69710;64.656;21.218;2023-06-10T07:31:36;102960.84;;;13.76;36.53
49455;BME280;69710;64.656;21.218;2023-06-10T07:34:03;102955.22;;;13.97;36.53
49455;BME280;69710;64.656;21.218;2023-06-10T07:36:31;102957.35;;;14.24;36.68
49455;BME280;69710;64.656;21.218;2023-06-10T07:38:59;102950.77;;;14.80;36.17
49455;BME280;69710;64.656;21.218;2023-06-10T07:41:26;102948.65;;;14.14;35.27
49455;BME280;69710;64.656;21.218;2023-06-10T07:43:54;102949.82;;;14.50;36.09
49455;BME280;69710;64.656;21.218;2023-06-10T07:46:22;102948.94;;;15.04;38.15
49455;BME280;69710;64.656;21.218;2023-06-10T07:48:51;102946.63;;;14.68;35.50
49455;BME280;69710;64.656;21.218;2023-06-10T07:51:20;102944.66;;;15.07;35.44
49455;BME280;69710;64.656;21.218;2023-06-10T07:53:48;102943.83;;;14.86;35.47
49455;BME280;69710;64.656;21.218;2023-06-10T07:56:15;102942.90;;;15.06;35.82
49455;BME280;69710;64.656;21.218;2023-06-10T07:58:43;102944.00;;;16.06;34.94
49455;BME280;69710;64.656;21.218;2023-06-10T08:01:11;102943.57;;;14.63;36.51
49455;BME280;69710;64.656;21.218;2023-06-10T08:03:39;102938.60;;;14.14;36.08
49455;BME280;69710;64.656;21.218;2023-06-10T08:06:07;102936.36;;;15.57;35.62
49455;BME280;69710;64.656;21.218;2023-06-10T08:08:34;102936.29;;;15.46;35.08
49455;BME280;69710;64.656;21.218;2023-06-10T08:11:02;102939.56;;;15.45;35.26
49455;BME280;69710;64.656;21.218;2023-06-10T08:13:29;102940.52;;;15.56;36.12
49455;BME280;69710;64.656;21.218;2023-06-10T08:15:56;102929.77;;;16.35;35.77
49455;BME280;69710;64.656;21.218;2023-06-10T08:18:29;102931.18;;;16.77;34.86
49455;BME280;69710;64.656;21.218;2023-06-10T08:20:57;102926.02;;;15.90;34.39
49455;BME280;69710;64.656;21.218;2023-06-10T08:23:25;102922.11;;;16.28;33.90
49455;BME280;69710;64.656;21.218;2023-06-10T08:25:52;102919.66;;;16.64;33.85
49455;BME280;69710;64.656;21.218;2023-06-10T08:28:19;102921.66;;;15.47;34.89
49455;BME280;69710;64.656;21.218;2023-06-10T08:30:47;102915.81;;;15.87;35.52
49455;BME280;69710;64.656;21.218;2023-06-10T08:33:28;102916.26;;;15.75;35.34
49455;BME280;69710;64.656;21.218;2023-06-10T08:35:56;102907.08;;;16.36;34.98
49455;BME280;69710;64.656;21.218;2023-06-10T08:38:23;102907.11;;;16.84;33.98
49455;BME280;69710;64.656;21.218;2023-06-10T08:40:52;102906.76;;;16.83;35.93
49455;BME280;69710;64.656;21.218;2023-06-10T08:43:29;102902.06;;;16.67;34.43
49455;BME280;69710;64.656;21.218;2023-06-10T08:46:00;102899.74;;;16.55;34.87
49455;BME280;69710;64.656;21.218;2023-06-10T08:48:29;102901.51;;;17.03;34.46
49455;BME280;69710;64.656;21.218;2023-06-10T08:50:58;102896.40;;;17.20;33.50
49455;BME280;69710;64.656;21.218;2023-06-10T08:53:26;102891.02;;;17.04;34.25
49455;BME280;69710;64.656;21.218;2023-06-10T08:55:56;102895.37;;;16.96;34.37
49455;BME280;69710;64.656;21.218;2023-06-10T08:58:27;102887.69;;;17.05;34.31
49455;BME280;69710;64.656;21.218;2023-06-10T09:00:55;102883.63;;;16.06;35.19
49455;BME280;69710;64.656;21.218;2023-06-10T09:03:23;102881.15;;;16.55;33.93
49455;BME280;69710;64.656;21.218;2023-06-10T09:05:51;102883.92;;;17.50;34.12
49455;BME280;69710;64.656;21.218;2023-06-10T09:08:19;102876.37;;;16.97;35.12
49455;BME280;69710;64.656;21.218;2023-06-10T09:10:47;102880.83;;;17.26;34.37
49455;BME280;69710;64.656;21.218;2023-06-10T09:13:15;102874.08;;;16.71;35.17
49455;BME280;69710;64.656;21.218;2023-06-10T09:15:42;102874.89;;;16.86;35.74
49455;BME280;69710;64.656;21.218;2023-06-10T09:18:10;102872.39;;;16.70;35.24
49455;BME280;69710;64.656;21.218;2023-06-10T09:20:39;102871.95;;;17.01;34.43
49455;BME280;69710;64.656;21.218;2023-06-10T09:23:07;102869.26;;;17.59;33.85
49455;BME280;69710;64.656;21.218;2023-06-10T09:25:36;102871.08;;;17.03;34.07
49455;BME280;69710;64.656;21.218;2023-06-10T09:28:04;102864.87;;;17.17;34.28
49455;BME280;69710;64.656;21.218;2023-06-10T09:30:33;102858.91;;;17.03;34.10
49455;BME280;69710;64.656;21.218;2023-06-10T09:33:03;102863.22;;;17.02;33.70
49455;BME280;69710;64.656;21.218;2023-06-10T09:35:37;102858.20;;;17.08;33.39
49455;BME280;69710;64.656;21.218;2023-06-10T09:38:12;102857.91;;;17.24;34.69
49455;BME280;69710;64.656;21.218;2023-06-10T09:40:49;102853.81;;;16.50;35.11
49455;BME280;69710;64.656;21.218;2023-06-10T09:43:18;102854.31;;;17.20;34.53
49455;BME280;69710;64.656;21.218;2023-06-10T09:45:48;102855.00;;;16.47;35.30
49455;BME280;69710;64.656;21.218;2023-06-10T09:48:16;102850.99;;;17.93;34.11
49455;BME280;69710;64.656;21.218;2023-06-10T09:50:44;102858.88;;;17.63;34.68
49455;BME280;69710;64.656;21.218;2023-06-10T09:53:12;102854.68;;;16.10;34.82
49455;BME280;69710;64.656;21.218;2023-06-10T09:55:41;102853.93;;;16.70;34.83
49455;BME280;69710;64.656;21.218;2023-06-10T09:58:09;102846.85;;;16.50;34.57
49455;BME280;69710;64.656;21.218;2023-06-10T10:00:37;102847.46;;;17.19;33.92
49455;BME280;69710;64.656;21.218;2023-06-10T10:03:04;102845.63;;;17.67;33.85
49455;BME280;69710;64.656;21.218;2023-06-10T10:05:32;102842.24;;;17.31;34.01
49455;BME280;69710;64.656;21.218;2023-06-10T10:07:59;102835.76;;;17.35;33.95
49455;BME280;69710;64.656;21.218;2023-06-10T10:10:27;102836.46;;;17.29;34.31
49455;BME280;69710;64.656;21.218;2023-06-10T10:12:56;102831.56;;;17.81;33.90
49455;BME280;69710;64.656;21.218;2023-06-10T10:15:28;102824.62;;;18.21;34.19
49455;BME280;69710;64.656;21.218;2023-06-10T10:18:00;102826.40;;;17.02;34.66
49455;BME280;69710;64.656;21.218;2023-06-10T10:20:33;102819.98;;;17.98;33.62
49455;BME280;69710;64.656;21.218;2023-06-10T10:23:03;102817.22;;;18.37;33.77
49455;BME280;69710;64.656;21.218;2023-06-10T10:25:37;102823.34;;;18.22;34.43
49455;BME280;69710;64.656;21.218;2023-06-10T10:28:08;102810.67;;;17.64;34.30
49455;BME280;69710;64.656;21.218;2023-06-10T10:30:40;102809.87;;;17.82;33.39
49455;BME280;69710;64.656;21.218;2023-06-10T10:33:13;102805.66;;;17.62;33.16
49455;BME280;69710;64.656;21.218;2023-06-10T10:35:46;102800.57;;;17.24;33.79
49455;BME280;69710;64.656;21.218;2023-06-10T10:38:14;102801.20;;;17.99;33.65
49455;BME280;69710;64.656;21.218;2023-06-10T10:40:42;102799.53;;;18.73;33.29
49455;BME280;69710;64.656;21.218;2023-06-10T10:43:12;102793.23;;;17.52;34.36
49455;BME280;69710;64.656;21.218;2023-06-10T10:45:40;102793.12;;;17.98;33.29
49455;BME280;69710;64.656;21.218;2023-06-10T10:48:09;102783.07;;;17.79;33.40
49455;BME280;69710;64.656;21.218;2023-06-10T10:50:37;102779.05;;;17.71;33.28
49455;BME280;69710;64.656;21.218;2023-06-10T10:53:05;102785.43;;;17.70;34.43
49455;BME280;69710;64.656;21.218;2023-06-10T10:55:33;102781.76;;;18.06;33.57
49455;BME280;69710;64.656;21.218;2023-06-10T10:58:04;102782.31;;;18.68;32.91
49455;BME280;69710;64.656;21.218;2023-06-10T11:00:34;102786.75;;;17.92;33.92
49455;BME280;69710;64.656;21.218;2023-06-10T11:03:06;102779.05;;;18.53;33.23
49455;BME280;69710;64.656;21.218;2023-06-10T11:05:38;102778.55;;;17.81;33.15
49455;BME280;69710;64.656;21.218;2023-06-10T11:08:07;102777.04;;;17.35;33.58
49455;BME280;69710;64.656;21.218;2023-06-10T11:10:35;102780.70;;;18.68;33.29
49455;BME280;69710;64.656;21.218;2023-06-10T11:13:08;102775.56;;;18.61;34.37
49455;BME280;69710;64.656;21.218;2023-06-10T11:15:44;102764.98;;;18.98;32.98
49455;BME280;69710;64.656;21.218;2023-06-10T11:18:15;102767.00;;;18.94;32.76
49455;BME280;69710;64.656;21.218;2023-06-10T11:20:51;102762.49;;;19.47;32.01
49455;BME280;69710;64.656;21.218;2023-06-10T11:23:33;102761.23;;;19.50;32.23
49455;BME280;69710;64.656;21.218;2023-06-10T11:26:30;102753.84;;;20.04;31.54
49455;BME280;69710;64.656;21.218;2023-06-10T11:29:04;102755.48;;;19.42;32.33
49455;BME280;69710;64.656;21.218;2023-06-10T11:31:33;102748.88;;;19.36;32.07
49455;BME280;69710;64.656;21.218;2023-06-10T11:34:02;102740.87;;;19.30;32.08
49455;BME280;69710;64.656;21.218;2023-06-10T11:36:30;102742.96;;;19.72;32.07
49455;BME280;69710;64.656;21.218;2023-06-10T11:39:01;102741.95;;;20.01;32.12
49455;BME280;69710;64.656;21.218;2023-06-10T11:41:30;102739.96;;;20.11;31.05
49455;BME280;69710;64.656;21.218;2023-06-10T11:44:02;102749.49;;;19.56;32.00
49455;BME280;69710;64.656;21.218;2023-06-10T11:46:31;102739.47;;;19.64;30.49
49455;BME280;69710;64.656;21.218;2023-06-10T11:49:00;102734.05;;;18.17;31.57
49455;BME280;69710;64.656;21.218;2023-06-10T11:51:28;102737.12;;;19.07;30.73
49455;BME280;69710;64.656;21.218;2023-06-10T11:53:56;102734.77;;;19.70;29.89
49455;BME280;69710;64.656;21.218;2023-06-10T11:56:26;102741.35;;;18.62;31.21
49455;BME280;69710;64.656;21.218;2023-06-10T11:58:56;102736.31;;;18.34;32.83
49455;BME280;69710;64.656;21.218;2023-06-10T12:01:26;102732.65;;;19.57;31.77
49455;BME280;69710;64.656;21.218;2023-06-10T12:03:58;102727.22;;;19.16;31.56
49455;BME280;69710;64.656;21.218;2023-06-10T12:06:26;102727.40;;;18.85;31.05
49455;BME280;69710;64.656;21.218;2023-06-10T12:08:55;102725.90;;;19.32;30.05
49455;BME280;69710;64.656;21.218;2023-06-10T12:11:23;102730.77;;;19.32;30.19
49455;BME280;69710;64.656;21.218;2023-06-10T12:13:51;102718.32;;;19.71;30.26
49455;BME280;69710;64.656;21.218;2023-06-10T12:16:18;102719.86;;;19.65;30.28
49455;BME280;69710;64.656;21.218;2023-06-10T12:18:47;102715.20;;;19.79;30.90
49455;BME280;69710;64.656;21.218;2023-06-10T12:21:18;102709.83;;;19.95;29.50
49455;BME280;69710;64.656;21.218;2023-06-10T12:24:04;102711.98;;;19.44;29.82
49455;BME280;69710;64.656;21.218;2023-06-10T12:26:36;102703.84;;;20.00;29.54
49455;BME280;69710;64.656;21.218;2023-06-10T12:29:21;102705.19;;;20.06;28.64
49455;BME280;69710;64.656;21.218;2023-06-10T12:31:55;102703.67;;;20.05;28.28
49455;BME280;69710;64.656;21.218;2023-06-10T12:34:30;102696.57;;;19.94;28.14
49455;BME280;69710;64.656;21.218;2023-06-10T12:36:59;102690.02;;;19.96;28.76
49455;BME280;69710;64.656;21.218;2023-06-10T12:39:26;102688.66;;;19.91;27.89
49455;BME280;69710;64.656;21.218;2023-06-10T12:41:55;102687.58;;;19.74;28.33
49455;BME280;69710;64.656;21.218;2023-06-10T12:44:31;102683.00;;;19.60;27.87
49455;BME280;69710;64.656;21.218;2023-06-10T12:46:59;102675.81;;;18.70;29.72
49455;BME280;69710;64.656;21.218;2023-06-10T12:49:27;102685.37;;;19.10;29.15